Time;durP1;ratioP1;P1;durP2;ratioP2;P2;SDS_P1;SDS_P2;PMS_P1;PMS_P2;Temp;Humidity;BMP_temperature;BMP_pressure;BME280_temperature;BME280_humidity;BME280_pressure;Samples;Min_cycle;Max_cycle;Signal;HPM_P1;HPM_P2
2021/11/11 00:02:13;;;;;;;11.50;10.10;;;6.30;99.90;;;;;;6212213;23;20418;-87
2021/11/11 00:04:58;;;;;;;13.53;9.83;;;6.10;99.90;;;;;;6186158;23;20414;-86
2021/11/11 00:07:32;;;;;;;11.77;10.27;;;6.00;99.90;;;;;;6186548;23;20392;-86
2021/11/11 00:10:00;;;;;;;14.30;10.17;;;6.00;99.90;;;;;;6170162;23;20434;-84
2021/11/11 00:12:31;;;;;;;15.90;11.73;;;6.00;99.90;;;;;;6168468;23;20422;-83
2021/11/11 00:14:59;;;;;;;12.70;10.10;;;6.20;99.90;;;;;;6168681;23;20413;-85
2021/11/11 00:17:33;;;;;;;14.13;10.57;;;6.40;99.90;;;;;;6167508;23;20474;-85
2021/11/11 00:20:03;;;;;;;15.97;10.80;;;6.30;99.90;;;;;;6194216;23;20434;-87
2021/11/11 00:22:29;;;;;;;17.17;11.63;;;6.30;99.90;;;;;;6193341;23;20396;-87
2021/11/11 00:25:00;;;;;;;15.30;10.77;;;6.40;99.90;;;;;;6167884;23;20425;-86
2021/11/11 00:27:27;;;;;;;12.50;10.00;;;6.30;99.90;;;;;;6166994;23;20863;-85
2021/11/11 00:29:57;;;;;;;11.47;10.27;;;6.20;99.90;;;;;;6194631;23;20437;-86
2021/11/11 00:32:24;;;;;;;15.17;11.40;;;6.30;99.90;;;;;;6193806;23;20478;-85
2021/11/11 00:35:00;;;;;;;13.40;11.10;;;6.40;99.90;;;;;;6193187;23;20441;-86
2021/11/11 00:37:30;;;;;;;16.50;13.10;;;6.40;99.90;;;;;;6194129;23;20426;-84
2021/11/11 00:40:04;;;;;;;16.97;11.13;;;6.30;99.90;;;;;;6193984;23;20427;-84
2021/11/11 00:42:31;;;;;;;15.83;12.00;;;6.20;99.90;;;;;;6167092;23;20778;-86
2021/11/11 00:44:57;;;;;;;13.07;11.50;;;6.20;99.90;;;;;;6166398;23;20481;-85
2021/11/11 00:47:29;;;;;;;13.87;10.60;;;6.00;99.90;;;;;;6165997;23;20865;-85
2021/11/11 00:49:56;;;;;;;12.03;10.63;;;5.90;99.90;;;;;;6167173;23;20432;-85
2021/11/11 00:52:23;;;;;;;14.80;11.80;;;6.00;99.90;;;;;;6193842;23;20474;-85
2021/11/11 00:54:50;;;;;;;17.70;11.80;;;6.20;99.90;;;;;;6193691;23;20910;-84
2021/11/11 00:57:17;;;;;;;12.93;11.53;;;6.30;99.90;;;;;;6193646;23;20448;-85
2021/11/11 00:59:43;;;;;;;14.60;12.03;;;6.10;99.90;;;;;;6171744;23;20422;-85
2021/11/11 01:02:13;;;;;;;20.93;14.23;;;6.00;99.90;;;;;;6168060;23;20390;-85
2021/11/11 01:04:40;;;;;;;16.40;11.43;;;6.10;99.90;;;;;;6194105;23;20419;-85
2021/11/11 01:07:16;;;;;;;13.80;10.70;;;6.00;99.90;;;;;;6165085;23;20891;-85
2021/11/11 01:09:49;;;;;;;12.63;10.03;;;6.00;99.90;;;;;;6168207;23;20514;-85
2021/11/11 01:12:22;;;;;;;15.17;12.90;;;6.20;99.90;;;;;;6168005;23;20415;-86
2021/11/11 01:14:49;;;;;;;14.17;11.40;;;6.10;99.90;;;;;;6194080;23;20435;-84
2021/11/11 01:17:23;;;;;;;15.93;11.30;;;6.10;99.90;;;;;;6168691;23;20411;-84
2021/11/11 01:19:53;;;;;;;13.67;11.60;;;6.00;99.90;;;;;;6194813;23;20438;-85
2021/11/11 01:22:20;;;;;;;11.50;10.10;;;5.90;99.90;;;;;;6168780;23;20432;-85
2021/11/11 01:24:52;;;;;;;16.70;11.40;;;5.90;99.90;;;;;;6168640;23;20446;-83
2021/11/11 01:27:19;;;;;;;12.83;10.53;;;5.80;99.90;;;;;;6167683;23;20523;-83
2021/11/11 01:29:54;;;;;;;12.23;10.37;;;5.60;99.90;;;;;;6194119;23;20457;-83
2021/11/11 01:32:21;;;;;;;11.87;10.60;;;5.70;99.90;;;;;;6168030;23;20424;-84
2021/11/11 01:34:48;;;;;;;13.17;10.50;;;5.60;99.90;;;;;;6169066;23;20409;-84
2021/11/11 01:37:14;;;;;;;12.33;10.50;;;5.80;99.90;;;;;;6167466;23;20412;-85
2021/11/11 01:39:50;;;;;;;13.43;11.27;;;5.50;99.90;;;;;;6193974;23;20483;-85
2021/11/11 01:42:19;;;;;;;14.53;11.10;;;5.60;99.90;;;;;;6172409;23;20435;-86
2021/11/11 01:44:51;;;;;;;13.97;10.83;;;5.40;99.90;;;;;;6195858;23;20410;-84
2021/11/11 01:47:25;;;;;;;15.97;12.10;;;5.50;99.90;;;;;;6167890;23;20411;-86
2021/11/11 01:49:54;;;;;;;21.63;12.77;;;5.70;99.90;;;;;;6194322;23;20430;-85
2021/11/11 01:52:26;;;;;;;14.50;11.40;;;5.80;99.90;;;;;;6195716;23;20406;-86
2021/11/11 01:54:56;;;;;;;12.93;10.23;;;5.70;99.90;;;;;;6170526;23;20411;-85
2021/11/11 01:57:25;;;;;;;17.47;12.37;;;5.80;99.90;;;;;;6195228;23;20423;-85
2021/11/11 01:59:55;;;;;;;17.27;11.33;;;5.90;99.90;;;;;;6172307;23;20433;-85
2021/11/11 02:02:32;;;;;;;15.70;10.97;;;5.80;99.90;;;;;;6195933;23;20497;-83
2021/11/11 02:05:05;;;;;;;18.40;10.83;;;5.60;99.90;;;;;;6168712;23;20416;-84
2021/11/11 02:07:35;;;;;;;15.40;11.37;;;5.50;99.90;;;;;;6194496;23;20459;-84
2021/11/11 02:10:05;;;;;;;12.50;10.93;;;5.40;99.90;;;;;;6193550;23;20488;-85
2021/11/11 02:12:38;;;;;;;16.40;11.37;;;5.40;99.90;;;;;;6169283;23;20477;-86
2021/11/11 02:15:08;;;;;;;14.00;10.93;;;5.50;99.90;;;;;;6194629;23;20471;-86
2021/11/11 02:17:38;;;;;;;13.13;10.10;;;5.30;99.90;;;;;;6170067;23;20473;-84
2021/11/11 02:20:10;;;;;;;14.90;11.30;;;5.40;99.90;;;;;;6149621;23;20421;-85
2021/11/11 02:22:45;;;;;;;12.43;10.43;;;5.40;99.90;;;;;;6170438;23;20470;-86
2021/11/11 02:25:14;;;;;;;14.27;11.60;;;5.40;99.90;;;;;;6171672;23;20494;-87
2021/11/11 02:27:43;;;;;;;14.97;11.03;;;5.30;99.90;;;;;;6171256;23;20412;-85
2021/11/11 02:30:19;;;;;;;16.17;11.97;;;5.40;99.90;;;;;;6170966;23;20414;-86
2021/11/11 02:32:50;;;;;;;13.00;11.00;;;5.50;99.90;;;;;;6198099;23;20441;-85
2021/11/11 02:35:19;;;;;;;14.37;10.10;;;5.40;99.90;;;;;;6197204;23;20496;-85
2021/11/11 02:37:52;;;;;;;18.20;11.60;;;5.40;99.90;;;;;;6196160;23;20451;-86
2021/11/11 02:40:24;;;;;;;15.57;11.40;;;5.30;99.90;;;;;;6170268;23;20408;-86
2021/11/11 02:42:54;;;;;;;12.83;11.47;;;5.20;99.90;;;;;;6169295;23;20416;-84
2021/11/11 02:45:28;;;;;;;15.50;10.80;;;5.20;99.90;;;;;;6170321;23;20486;-85
2021/11/11 02:47:55;;;;;;;15.50;11.30;;;5.30;99.90;;;;;;6196826;23;20412;-85
2021/11/11 02:50:22;;;;;;;16.70;11.40;;;5.20;99.90;;;;;;6197280;23;20513;-85
2021/11/11 02:52:51;;;;;;;17.60;13.10;;;5.10;99.90;;;;;;6171117;23;20420;-84
2021/11/11 02:55:29;;;;;;;13.10;11.70;;;5.00;99.90;;;;;;6196514;23;20423;-85
2021/11/11 02:58:01;;;;;;;18.53;11.60;;;5.00;99.90;;;;;;6163466;23;20445;-85
2021/11/11 03:00:48;;;;;;;13.10;10.80;;;5.00;99.90;;;;;;6165722;23;20484;-85
2021/11/11 03:03:15;;;;;;;14.20;10.87;;;4.80;99.90;;;;;;6181616;23;20401;-88
2021/11/11 03:05:44;;;;;;;12.70;11.03;;;4.70;99.90;;;;;;6180995;23;20411;-87
2021/11/11 03:08:16;;;;;;;12.83;10.10;;;5.00;99.90;;;;;;6182571;23;20431;-87
2021/11/11 03:10:48;;;;;;;14.03;11.23;;;4.80;99.90;;;;;;6182842;23;20399;-87
2021/11/11 03:13:25;;;;;;;14.73;11.20;;;5.10;99.90;;;;;;6182390;23;20417;-88
2021/11/11 03:15:55;;;;;;;15.50;11.13;;;5.10;99.90;;;;;;6182366;23;20391;-87
2021/11/11 03:18:25;;;;;;;14.37;10.67;;;5.00;99.90;;;;;;6173115;23;20463;-86
2021/11/11 03:20:52;;;;;;;13.67;10.87;;;5.10;99.90;;;;;;6138795;23;20390;-88
2021/11/11 03:23:20;;;;;;;13.30;11.13;;;5.10;99.90;;;;;;6161412;23;20472;-86
2021/11/11 03:25:47;;;;;;;13.60;10.70;;;5.20;99.90;;;;;;6163317;23;20408;-85
2021/11/11 03:28:19;;;;;;;13.73;10.60;;;5.10;99.90;;;;;;6163724;23;20440;-84
2021/11/11 03:30:49;;;;;;;11.60;10.40;;;5.00;99.90;;;;;;6163854;23;20441;-85
2021/11/11 03:33:17;;;;;;;11.60;9.60;;;4.90;99.90;;;;;;6165431;23;20526;-84
2021/11/11 03:35:50;;;;;;;10.47;9.37;;;4.90;99.90;;;;;;6164237;23;20480;-85
2021/11/11 03:38:21;;;;;;;11.97;10.60;;;4.80;99.90;;;;;;6163160;23;20519;-87
2021/11/11 03:40:48;;;;;;;13.07;10.73;;;4.90;99.90;;;;;;6163300;23;20411;-86
2021/11/11 03:43:16;;;;;;;15.93;11.73;;;4.90;99.90;;;;;;6161882;23;20415;-87
2021/11/11 03:45:43;;;;;;;15.40;11.07;;;4.60;99.90;;;;;;6163064;23;20492;-85
2021/11/11 03:48:10;;;;;;;13.27;10.80;;;4.60;99.90;;;;;;6137942;23;20446;-87
2021/11/11 03:50:38;;;;;;;13.13;11.47;;;4.70;99.90;;;;;;6162576;23;20439;-87
2021/11/11 03:53:05;;;;;;;19.27;11.57;;;4.60;99.90;;;;;;6161840;23;20426;-86
2021/11/11 03:55:32;;;;;;;20.17;11.60;;;4.90;99.90;;;;;;6165653;23;20406;-85
2021/11/11 03:58:02;;;;;;;15.47;11.17;;;5.00;99.90;;;;;;6173625;23;20452;-83
2021/11/11 04:00:29;;;;;;;15.53;10.90;;;4.90;99.90;;;;;;6194501;23;20460;-86
2021/11/11 04:02:56;;;;;;;24.77;11.60;;;4.70;99.90;;;;;;6167660;23;20454;-86
2021/11/11 04:05:23;;;;;;;26.60;11.03;;;4.60;99.90;;;;;;6174449;23;20426;-85
2021/11/11 04:07:59;;;;;;;22.23;11.60;;;4.50;99.90;;;;;;6176940;23;20471;-86
2021/11/11 04:10:28;;;;;;;27.03;11.70;;;4.50;99.90;;;;;;6176462;23;20409;-87
2021/11/11 04:13:01;;;;;;;25.90;11.17;;;4.30;99.90;;;;;;6198746;23;20966;-85
2021/11/11 04:15:30;;;;;;;22.73;10.13;;;4.30;99.90;;;;;;6168720;23;20410;-85
2021/11/11 04:17:58;;;;;;;28.37;12.37;;;4.30;99.90;;;;;;6193959;23;20422;-86
2021/11/11 04:20:32;;;;;;;29.17;11.53;;;4.20;99.90;;;;;;6168286;23;20461;-86
2021/11/11 04:23:02;;;;;;;26.27;10.40;;;4.00;99.90;;;;;;6168035;23;20419;-86
2021/11/11 04:25:50;;;;;;;28.57;10.67;;;3.80;99.90;;;;;;6194108;23;20414;-86
2021/11/11 04:28:26;;;;;;;38.50;11.37;;;3.90;99.90;;;;;;6167345;23;20438;-85
2021/11/11 04:31:01;;;;;;;36.03;10.60;;;4.10;99.90;;;;;;6193152;23;20407;-86
2021/11/11 04:33:42;;;;;;;36.27;11.73;;;4.20;99.90;;;;;;6167632;23;20412;-86
2021/11/11 04:36:42;;;;;;;23.53;10.83;;;4.20;99.90;;;;;;6168287;23;20749;-85
2021/11/11 04:44:34;;;;;;;37.37;10.30;;;4.00;99.90;;;;;;6207198;23;20409;-84
2021/11/11 04:50:24;;;;;;;38.17;11.53;;;3.70;99.90;;;;;;6204488;23;20440;-88
2021/11/11 04:59:30;;;;;;;42.20;10.77;;;3.70;99.90;;;;;;6197450;23;20415;-86
2021/11/11 05:01:28;;;;;;;15.60;9.43;;;3.70;99.90;;;;;;6168507;23;20415;-85
2021/11/11 05:03:55;;;;;;;18.07;9.80;;;3.80;99.90;;;;;;6168663;23;20493;-87
2021/11/11 05:06:22;;;;;;;17.83;9.37;;;4.00;99.90;;;;;;6170406;23;20471;-85
2021/11/11 05:08:50;;;;;;;30.37;9.40;;;4.00;99.90;;;;;;6163302;23;20443;-84
2021/11/11 05:11:18;;;;;;;35.20;10.50;;;3.90;99.90;;;;;;6161480;23;20422;-85
2021/11/11 05:13:45;;;;;;;24.37;10.03;;;3.90;99.90;;;;;;6163704;23;20450;-85
2021/11/11 05:16:18;;;;;;;12.07;8.50;;;3.80;99.90;;;;;;6165346;23;20396;-86
2021/11/11 05:18:48;;;;;;;18.87;10.90;;;3.90;99.90;;;;;;6163141;23;20507;-86
2021/11/11 05:21:24;;;;;;;22.63;10.33;;;3.70;99.90;;;;;;6158013;23;20412;-85
2021/11/11 05:23:51;;;;;;;34.57;9.70;;;3.60;99.90;;;;;;6164028;23;20398;-89
2021/11/11 05:26:25;;;;;;;29.83;11.10;;;3.60;99.90;;;;;;6179112;23;20820;-87
2021/11/11 05:28:51;;;;;;;29.67;10.97;;;3.50;99.90;;;;;;6181994;23;20435;-88
2021/11/11 05:31:23;;;;;;;17.00;11.40;;;3.50;99.90;;;;;;6180629;23;20396;-87
2021/11/11 05:33:51;;;;;;;25.77;10.77;;;3.50;99.90;;;;;;6180401;23;20416;-87
2021/11/11 05:36:21;;;;;;;25.87;10.80;;;3.60;99.90;;;;;;6161785;23;20412;-85
2021/11/11 05:39:04;;;;;;;17.30;10.10;;;3.50;99.90;;;;;;6157830;23;20529;-84
2021/11/11 05:41:37;;;;;;;18.90;10.37;;;3.60;99.90;;;;;;6156967;23;20738;-86
2021/11/11 05:44:06;;;;;;;25.00;10.50;;;3.70;99.90;;;;;;6157769;23;20412;-84
2021/11/11 05:46:36;;;;;;;20.60;11.07;;;4.00;99.90;;;;;;6161135;23;20400;-87
2021/11/11 05:49:03;;;;;;;18.80;10.50;;;4.00;99.90;;;;;;6161151;23;20442;-85
2021/11/11 05:51:29;;;;;;;17.83;11.30;;;4.00;99.90;;;;;;6161727;23;20458;-85
2021/11/11 05:53:56;;;;;;;14.67;10.33;;;4.00;99.90;;;;;;6161273;23;20499;-85
2021/11/11 05:56:25;;;;;;;16.80;10.83;;;4.20;99.90;;;;;;6159298;23;20434;-83
2021/11/11 05:58:55;;;;;;;17.90;11.63;;;4.30;99.90;;;;;;6184855;23;20453;-85
2021/11/11 06:01:28;;;;;;;20.33;12.80;;;4.30;99.90;;;;;;6181177;23;20421;-86
2021/11/11 06:04:00;;;;;;;25.00;13.07;;;4.10;99.90;;;;;;6165243;23;20414;-86
2021/11/11 06:06:30;;;;;;;19.80;12.87;;;4.10;99.90;;;;;;6190490;23;20487;-84
2021/11/11 06:09:00;;;;;;;22.03;11.20;;;4.20;99.90;;;;;;6204664;23;20431;-85
2021/11/11 06:11:37;;;;;;;27.60;14.20;;;4.00;99.90;;;;;;6187162;23;20680;-86
2021/11/11 06:14:04;;;;;;;25.77;12.57;;;3.90;99.90;;;;;;6187311;23;20407;-86
2021/11/11 06:16:33;;;;;;;27.07;14.37;;;4.10;99.90;;;;;;6187537;23;20480;-88
2021/11/11 06:19:09;;;;;;;24.67;13.77;;;4.10;99.90;;;;;;6187893;23;20464;-89
2021/11/11 06:21:38;;;;;;;29.57;13.70;;;4.00;99.90;;;;;;6187829;23;20375;-88
2021/11/11 06:24:07;;;;;;;39.20;15.10;;;4.00;99.90;;;;;;6211669;23;20482;-88
2021/11/11 06:27:01;;;;;;;31.17;15.10;;;4.10;99.90;;;;;;6183442;23;20407;-84
2021/11/11 06:29:28;;;;;;;23.33;13.67;;;3.90;99.90;;;;;;6142007;23;20437;-82
2021/11/11 06:32:15;;;;;;;23.17;14.03;;;3.80;99.90;;;;;;6201796;23;20433;-85
2021/11/11 06:35:04;;;;;;;37.97;15.13;;;4.00;99.90;;;;;;6177566;23;20395;-85
2021/11/11 06:37:37;;;;;;;28.50;12.50;;;4.00;99.90;;;;;;6195215;23;20420;-88
2021/11/11 06:40:06;;;;;;;24.67;12.20;;;3.80;99.90;;;;;;6197231;23;20473;-86
2021/11/11 06:42:37;;;;;;;24.33;11.80;;;3.80;99.90;;;;;;6167899;23;20420;-83
2021/11/11 06:45:12;;;;;;;19.13;10.93;;;3.80;99.90;;;;;;6194905;23;20516;-85
2021/11/11 06:47:43;;;;;;;24.00;11.93;;;3.80;99.90;;;;;;6170187;23;20392;-84
2021/11/11 06:50:12;;;;;;;26.40;11.73;;;3.80;99.90;;;;;;6170987;23;20482;-83
2021/11/11 06:52:40;;;;;;;45.30;15.13;;;3.70;99.90;;;;;;6193545;23;20754;-84
2021/11/11 06:55:13;;;;;;;33.60;11.67;;;3.60;99.90;;;;;;6147717;23;20506;-88
2021/11/11 06:57:45;;;;;;;24.00;11.80;;;3.70;99.90;;;;;;6211590;23;20500;-87
2021/11/11 07:00:13;;;;;;;32.83;11.77;;;3.80;99.90;;;;;;6210802;23;20508;-87
2021/11/11 07:02:45;;;;;;;33.70;12.40;;;3.70;99.90;;;;;;6187365;23;20467;-86
2021/11/11 07:05:21;;;;;;;64.10;14.17;;;3.40;99.90;;;;;;6213268;23;20420;-88
2021/11/11 07:07:47;;;;;;;41.20;13.67;;;3.50;99.90;;;;;;6176214;23;20440;-85
2021/11/11 07:10:17;;;;;;;35.57;12.73;;;3.60;99.90;;;;;;6169603;23;20407;-85
2021/11/11 07:15:22;;;;;;;36.97;12.77;;;3.70;99.90;;;;;;6135094;23;20492;-87
2021/11/11 07:17:52;;;;;;;28.40;11.20;;;3.70;99.90;;;;;;6132906;23;20408;-84
2021/11/11 07:20:25;;;;;;;31.83;12.33;;;3.70;99.90;;;;;;6109788;23;20436;-84
2021/11/11 07:23:00;;;;;;;30.23;12.37;;;3.70;99.90;;;;;;6109303;23;20408;-85
2021/11/11 07:25:28;;;;;;;29.17;12.97;;;3.60;99.90;;;;;;6110854;23;20402;-85
2021/11/11 07:28:01;;;;;;;33.87;12.60;;;3.50;99.90;;;;;;6110003;23;20412;-86
2021/11/11 07:30:32;;;;;;;16.07;10.83;;;3.50;99.90;;;;;;6135826;23;20495;-85
2021/11/11 07:33:03;;;;;;;21.70;10.73;;;3.70;99.90;;;;;;6132725;23;20443;-85
2021/11/11 07:36:02;;;;;;;;;;;;;;;;;;;;;
2021/11/11 07:38:34;;;;;;;22.00;11.80;;;3.60;99.90;;;;;;6134876;23;20618;-85
2021/11/11 07:41:04;;;;;;;55.90;13.67;;;3.70;99.90;;;;;;6134777;23;20445;-84
2021/11/11 07:43:50;;;;;;;31.53;12.57;;;3.60;99.90;;;;;;6108244;23;20417;-84
2021/11/11 07:46:37;;;;;;;32.27;13.00;;;3.60;99.90;;;;;;6050899;23;20760;-85
2021/11/11 07:49:12;;;;;;;26.50;12.00;;;3.60;99.90;;;;;;6072597;23;20764;-85
2021/11/11 07:51:42;;;;;;;56.90;13.30;;;3.80;99.90;;;;;;6048155;23;20444;-84
2021/11/11 07:54:12;;;;;;;34.50;13.60;;;3.90;99.90;;;;;;6048721;23;20432;-83
2021/11/11 07:56:43;;;;;;;38.37;13.17;;;3.90;99.90;;;;;;6047787;23;20421;-82
2021/11/11 07:59:16;;;;;;;40.97;14.17;;;3.80;99.90;;;;;;6025299;23;20444;-85
2021/11/11 08:01:45;;;;;;;34.47;13.10;;;3.90;99.90;;;;;;6070901;23;20427;-83
2021/11/11 08:04:19;;;;;;;38.67;14.53;;;4.20;99.90;;;;;;6070423;23;20432;-85
2021/11/11 08:06:54;;;;;;;57.77;15.80;;;4.30;99.90;;;;;;6072441;23;20507;-84
2021/11/11 08:09:23;;;;;;;49.83;14.67;;;4.30;99.90;;;;;;6046421;23;20465;-85
2021/11/11 08:11:51;;;;;;;67.97;15.37;;;4.40;99.90;;;;;;6046750;23;20422;-85
2021/11/11 08:14:27;;;;;;;64.43;15.37;;;4.40;99.90;;;;;;6046978;23;20503;-84
2021/11/11 08:16:54;;;;;;;37.93;14.60;;;4.30;99.90;;;;;;6048554;23;20942;-83
2021/11/11 08:19:43;;;;;;;79.47;17.30;;;4.30;99.90;;;;;;6071018;23;20446;-85
2021/11/11 08:22:44;;;;;;;45.27;15.90;;;4.20;99.90;;;;;;6052673;23;20427;-84
2021/11/11 08:25:28;;;;;;;43.83;15.30;;;4.30;99.90;;;;;;6109942;23;20416;-83
2021/11/11 08:28:04;;;;;;;33.77;14.57;;;4.20;99.90;;;;;;6109010;23;20409;-85
2021/11/11 08:30:34;;;;;;;40.17;15.10;;;4.20;99.90;;;;;;6108362;23;20464;-83
2021/11/11 08:33:01;;;;;;;33.97;13.90;;;4.30;99.90;;;;;;6108803;23;20502;-83
2021/11/11 08:35:29;;;;;;;36.23;14.00;;;4.40;99.90;;;;;;6113876;23;20432;-87
2021/11/11 08:38:10;;;;;;;35.33;13.00;;;4.50;99.90;;;;;;6149576;23;20414;-88
2021/11/11 08:40:38;;;;;;;38.83;15.90;;;4.50;99.90;;;;;;6150629;23;20453;-88
2021/11/11 08:43:04;;;;;;;36.73;13.53;;;4.30;99.90;;;;;;6123009;23;20439;-88
2021/11/11 08:45:42;;;;;;;55.87;15.70;;;4.10;99.90;;;;;;6128009;23;20412;-87
2021/11/11 08:48:13;;;;;;;32.67;15.47;;;4.20;99.90;;;;;;6140973;23;20515;-87
2021/11/11 08:50:42;;;;;;;66.87;15.50;;;4.40;99.90;;;;;;6138556;23;20432;-85
2021/11/11 08:53:20;;;;;;;26.43;13.77;;;4.40;99.90;;;;;;6114182;23;20473;-86
2021/11/11 08:55:48;;;;;;;32.23;14.50;;;4.20;99.90;;;;;;6141938;23;20416;-85
2021/11/11 08:58:36;;;;;;;26.73;13.83;;;4.50;99.90;;;;;;6118869;23;20523;-87
2021/11/11 09:01:06;;;;;;;25.33;15.03;;;4.40;99.90;;;;;;6109094;23;20521;-86
2021/11/11 09:03:39;;;;;;;33.67;15.73;;;4.30;99.90;;;;;;6110248;23;20426;-85
2021/11/11 09:06:14;;;;;;;44.30;14.70;;;4.30;99.90;;;;;;6108346;23;20442;-86
2021/11/11 09:08:59;;;;;;;37.43;14.73;;;4.60;99.90;;;;;;6109955;23;20456;-85
2021/11/11 09:11:27;;;;;;;32.63;16.23;;;4.80;99.90;;;;;;6108364;23;20445;-87
2021/11/11 09:13:54;;;;;;;38.10;15.57;;;4.90;99.90;;;;;;6108136;23;20490;-84
2021/11/11 09:16:22;;;;;;;47.60;16.37;;;5.00;99.90;;;;;;6110755;23;20997;-85
2021/11/11 09:18:59;;;;;;;41.37;16.90;;;4.90;99.90;;;;;;6133772;23;20435;-85
2021/11/11 09:21:28;;;;;;;34.57;15.93;;;4.60;99.90;;;;;;6133636;23;20477;-84
2021/11/11 09:23:56;;;;;;;37.57;16.93;;;4.80;99.90;;;;;;6102058;23;20424;-85
2021/11/11 09:26:33;;;;;;;34.93;16.30;;;4.90;99.90;;;;;;6110548;23;20946;-86
2021/11/11 09:29:00;;;;;;;30.43;18.07;;;4.90;99.90;;;;;;6107923;23;20436;-85
2021/11/11 09:31:27;;;;;;;31.33;14.50;;;5.00;99.90;;;;;;6108157;23;20842;-86
2021/11/11 09:33:54;;;;;;;53.17;18.47;;;4.90;99.90;;;;;;6137267;23;20409;-85
2021/11/11 09:36:24;;;;;;;44.13;18.53;;;4.80;99.90;;;;;;6115056;23;20529;-85
2021/11/11 09:38:54;;;;;;;34.33;15.07;;;4.80;99.90;;;;;;6143214;23;20430;-85
2021/11/11 09:41:23;;;;;;;44.57;17.70;;;4.70;99.90;;;;;;6114865;23;20445;-83
2021/11/11 09:43:59;;;;;;;44.73;18.93;;;4.60;99.90;;;;;;6109600;23;20411;-85
2021/11/11 09:46:32;;;;;;;49.83;17.70;;;4.40;99.90;;;;;;6110055;23;20465;-85
2021/11/11 09:49:04;;;;;;;51.33;18.47;;;4.40;99.90;;;;;;6108792;23;20447;-84
2021/11/11 09:51:31;;;;;;;34.33;16.50;;;4.40;99.90;;;;;;6134522;23;20428;-86
2021/11/11 09:59:19;;;;;;;46.60;17.87;;;4.90;99.90;;;;;;6133260;23;20432;-85
2021/11/11 10:01:48;;;;;;;42.73;18.03;;;4.90;99.90;;;;;;6111057;23;20403;-85
2021/11/11 10:04:19;;;;;;;47.07;19.77;;;4.70;99.90;;;;;;6108853;23;20405;-85
2021/11/11 10:06:46;;;;;;;31.07;19.13;;;4.80;99.90;;;;;;6107472;23;20450;-83
2021/11/11 10:09:21;;;;;;;31.50;17.20;;;4.70;99.90;;;;;;6106868;23;20551;-85
2021/11/11 10:11:55;;;;;;;31.00;17.30;;;5.00;99.90;;;;;;6133672;23;20403;-85
2021/11/11 10:14:23;;;;;;;30.73;16.97;;;5.10;99.90;;;;;;6108120;23;20513;-84
2021/11/11 10:16:59;;;;;;;29.80;17.37;;;5.20;99.90;;;;;;6107780;23;20476;-85
2021/11/11 10:19:34;;;;;;;29.90;17.83;;;5.30;99.90;;;;;;6133095;23;20446;-85
2021/11/11 10:22:06;;;;;;;31.07;19.10;;;5.20;99.90;;;;;;6132623;23;20419;-85
2021/11/11 10:27:33;;;;;;;36.90;18.80;;;5.30;99.90;;;;;;6133336;23;20478;-86
2021/11/11 10:30:21;;;;;;;34.07;18.13;;;5.10;99.90;;;;;;6107170;23;20428;-84
2021/11/11 10:33:09;;;;;;;33.93;16.37;;;5.20;99.90;;;;;;6108430;23;20483;-85
2021/11/11 10:35:47;;;;;;;35.73;17.70;;;5.10;99.90;;;;;;6134932;23;20418;-86
2021/11/11 10:38:19;;;;;;;34.60;18.20;;;5.10;99.90;;;;;;6109423;23;20779;-83
2021/11/11 10:41:14;;;;;;;30.70;17.43;;;5.10;99.90;;;;;;6134663;23;21025;-85
2021/11/11 10:43:49;;;;;;;30.73;18.70;;;5.10;99.90;;;;;;6134971;23;20453;-87
2021/11/11 10:46:46;;;;;;;34.60;21.30;;;5.20;99.90;;;;;;6106707;23;20403;-85
2021/11/11 10:49:29;;;;;;;39.17;18.97;;;5.10;99.90;;;;;;6107731;23;20431;-84
2021/11/11 10:52:24;;;;;;;52.77;21.43;;;5.30;99.90;;;;;;6107355;23;20840;-84
2021/11/11 10:54:58;;;;;;;33.30;19.77;;;5.10;99.90;;;;;;6134125;23;20918;-86
2021/11/11 10:57:40;;;;;;;37.47;21.97;;;5.10;99.90;;;;;;6111084;23;20466;-86
2021/11/11 11:00:38;;;;;;;30.67;19.30;;;5.20;99.90;;;;;;6114487;23;20506;-85
2021/11/11 11:03:20;;;;;;;36.30;20.57;;;5.30;99.90;;;;;;6114309;23;20404;-85
2021/11/11 11:05:56;;;;;;;41.47;22.50;;;5.70;99.90;;;;;;6116776;23;20392;-84
2021/11/11 11:08:50;;;;;;;36.87;22.07;;;5.60;99.90;;;;;;6114879;23;20446;-86
2021/11/11 11:11:18;;;;;;;48.87;22.00;;;5.80;99.90;;;;;;6141994;23;20415;-85
2021/11/11 11:17:33;;;;;;;42.27;22.20;;;5.70;99.90;;;;;;6019046;23;20401;-86
2021/11/11 11:20:36;;;;;;;48.23;22.97;;;5.80;99.90;;;;;;6143758;23;20450;-84
2021/11/11 11:23:53;;;;;;;44.90;26.53;;;5.80;99.90;;;;;;6155300;23;20463;-84
2021/11/11 11:26:30;;;;;;;39.20;22.30;;;5.70;99.90;;;;;;6166840;23;20734;-85
2021/11/11 11:32:21;;;;;;;49.27;25.80;;;5.80;99.90;;;;;;6198275;23;20441;-86
2021/11/11 11:35:30;;;;;;;47.13;25.20;;;6.20;99.90;;;;;;6171807;23;20397;-85
2021/11/11 11:38:22;;;;;;;45.00;26.40;;;6.30;99.90;;;;;;6136571;23;20417;-85
2021/11/11 11:41:48;;;;;;;39.23;23.77;;;6.20;99.90;;;;;;6171568;23;20478;-86
2021/11/11 11:44:40;;;;;;;43.17;25.37;;;6.30;99.90;;;;;;6167388;23;20591;-84
2021/11/11 11:50:32;;;;;;;40.20;24.40;;;6.40;99.90;;;;;;6075609;23;20459;-85
2021/11/11 12:08:13;;;;;;;46.20;26.67;;;6.90;99.90;;;;;;6047095;23;20403;-87
2021/11/11 12:10:28;;;;;;;42.73;26.90;;;7.00;99.90;;;;;;6030331;23;20426;-85
2021/11/11 12:16:40;;;;;;;39.97;26.83;;;6.90;99.90;;;;;;5961075;24;20522;-83
2021/11/11 12:39:50;;;;;;;38.47;26.40;;;7.50;99.90;;;;;;6063816;23;20464;-89
2021/11/11 12:42:33;;;;;;;38.77;26.67;;;7.60;99.90;;;;;;6062850;23;20441;-89
2021/11/11 12:45:13;;;;;;;38.70;26.23;;;7.40;99.90;;;;;;6062126;23;20428;-88
2021/11/11 12:47:57;;;;;;;33.83;23.37;;;7.60;99.90;;;;;;6062393;23;20422;-85
2021/11/11 12:50:58;;;;;;;35.43;25.77;;;7.80;99.90;;;;;;6000070;23;20462;-85
2021/11/11 12:53:43;;;;;;;38.50;28.27;;;8.10;99.90;;;;;;6018449;23;20454;-85
2021/11/11 12:56:16;;;;;;;41.13;27.53;;;8.20;99.90;;;;;;6021495;23;20426;-85
2021/11/11 12:59:07;;;;;;;38.47;27.17;;;8.30;99.90;;;;;;6019378;23;20501;-85
2021/11/11 13:01:55;;;;;;;41.37;30.73;;;8.20;99.90;;;;;;6025739;23;20458;-89
2021/11/11 13:04:23;;;;;;;41.37;28.80;;;8.10;99.90;;;;;;6035236;23;20411;-89
2021/11/11 13:06:53;;;;;;;37.60;28.20;;;8.10;99.90;;;;;;6034009;23;20397;-86
2021/11/11 13:09:36;;;;;;;43.53;28.63;;;8.20;99.90;;;;;;6010365;23;20570;-85
2021/11/11 13:12:23;;;;;;;42.43;28.07;;;8.20;99.90;;;;;;6017710;23;20818;-86
2021/11/11 13:14:56;;;;;;;44.67;29.53;;;8.40;99.90;;;;;;6017203;23;20446;-83
2021/11/11 13:17:48;;;;;;;35.80;26.30;;;8.60;99.90;;;;;;6011420;23;20541;-86
2021/11/11 13:20:36;;;;;;;42.77;28.53;;;8.60;99.90;;;;;;6017586;23;20477;-86
2021/11/11 13:23:37;;;;;;;41.33;29.13;;;8.50;99.90;;;;;;6015451;23;20505;-83
2021/11/11 13:27:20;;;;;;;45.13;28.57;;;8.80;99.90;;;;;;6017380;23;20416;-85
2021/11/11 14:00:53;;;;;;;42.83;28.67;;;9.50;99.90;;;;;;6045013;23;20461;-85
2021/11/11 16:02:53;;;;;;;37.50;26.53;;;8.80;99.90;;;;;;6191440;23;20553;-85
2021/11/11 16:23:01;;;;;;;40.10;28.10;;;8.50;99.90;;;;;;6196226;23;20448;-87
2021/11/11 16:28:11;;;;;;;43.90;28.47;;;8.40;99.90;;;;;;6191692;23;21038;-86
2021/11/11 16:31:17;;;;;;;41.50;27.00;;;8.50;99.90;;;;;;6166775;23;20410;-86
2021/11/11 16:33:59;;;;;;;42.47;26.67;;;8.60;99.90;;;;;;6170362;23;20418;-85
2021/11/11 16:36:31;;;;;;;38.40;27.17;;;8.50;99.90;;;;;;6169601;23;20529;-85
2021/11/11 16:39:22;;;;;;;33.50;25.37;;;8.40;99.90;;;;;;6168634;23;20630;-87
2021/11/11 16:42:01;;;;;;;32.33;25.80;;;8.30;99.90;;;;;;6191528;23;20446;-87
2021/11/11 16:44:38;;;;;;;38.57;27.20;;;8.30;99.90;;;;;;6167000;23;20435;-86
2021/11/11 16:47:19;;;;;;;38.53;27.53;;;8.30;99.90;;;;;;6191771;23;20416;-86
2021/11/11 16:49:53;;;;;;;41.13;28.97;;;8.40;99.90;;;;;;6137606;23;21085;-87
2021/11/11 16:52:28;;;;;;;39.73;27.57;;;8.30;99.90;;;;;;6132732;23;20430;-86
2021/11/11 16:55:09;;;;;;;41.23;29.60;;;8.30;99.90;;;;;;6132988;23;20415;-88
2021/11/11 16:57:46;;;;;;;40.47;29.80;;;8.20;99.90;;;;;;6132790;23;20875;-88
2021/11/11 17:00:27;;;;;;;44.53;27.50;;;8.20;99.90;;;;;;6093969;23;20406;-86
2021/11/11 17:03:00;;;;;;;40.53;28.40;;;8.20;99.90;;;;;;6102760;23;20497;-86
2021/11/11 17:05:36;;;;;;;40.33;27.87;;;8.20;99.90;;;;;;6135052;23;20409;-86
2021/11/11 17:08:21;;;;;;;40.00;28.13;;;8.20;99.90;;;;;;6071511;23;20459;-86
2021/11/11 17:11:17;;;;;;;38.60;27.90;;;8.20;99.90;;;;;;6165369;23;20419;-84
2021/11/11 17:14:08;;;;;;;44.00;28.77;;;8.20;99.90;;;;;;6163287;23;20539;-86
2021/11/11 17:16:38;;;;;;;38.70;28.17;;;8.30;99.90;;;;;;6162845;23;20413;-88
2021/11/11 17:19:26;;;;;;;41.00;29.87;;;8.30;99.90;;;;;;6156057;23;20495;-85
2021/11/11 17:33:33;;;;;;;43.03;29.53;;;8.10;99.90;;;;;;6082213;23;20445;-85